To NAV CANADA Home Page Login to a new session Search on AWWS site Feedback and Comments Disclaimer Vers la page française équivalente Tips FAQ What's new on the site To the Forecasts and Observations / NOTAM section To "File a Flight Plan" website Publications and other links Update of the User's profile FIC Telephone Numbers My Weather Data Folder Route Weather Data Regional Weather Data Local Weather Data To the Forecasts and Observations / NOTAM section
Request Generated 10/17/2017 at 01:54:40 UTC . Weather information available at that time is displayed.

METAR/TAF

MOOSE JAW/AIR VICE MARSHAL C.M. MCEWEN/SK    

SPECI CYMJ 170039Z 19009KT 15SM FEW300 12/00 A2984 RMK CI2 LAST OBS / NXT 171000 UTC SLP116=
METAR CYMJ 170000Z 20006KT 15SM FEW300 15/00 A2985 RMK CI2 SLP121=
METAR CYMJ 162300Z 25009KT 15SM FEW300 18/00 A2987 RMK CI2 SLP123=
METAR CYMJ 162200Z 27008KT 15SM SCT300 19/00 A2988 RMK CI3 SLP127=

TAF AMD CYMJ 170042Z 1700/1712 FCST CNCLD DUE END OF FLYING PROGRAM
RMK NXT FCST WILL BE ISSUED AT 171115Z=
Your time UTC time
Weather data provided by Environment Canada and NAV CANADA